Time;durP1;ratioP1;P1;durP2;ratioP2;P2;SDS_P1;SDS_P2;PMS_P1;PMS_P2;Temp;Humidity;BMP_temperature;BMP_pressure;BME280_temperature;BME280_humidity;BME280_pressure;Samples;Min_cycle;Max_cycle;Signal;HPM_P1;HPM_P2
2021/12/17 00:01:10;;;;;;;;;64.00;49.00;;;;;-146.39;100.00;62182.44;6269553;20;2867954;-67
2021/12/17 00:03:50;;;;;;;;;68.00;51.00;;;;;-146.39;100.00;62182.44;6269383;20;2868224;-62
2021/12/17 00:08:58;;;;;;;;;62.50;49.00;;;;;-146.39;100.00;62182.44;6303786;20;2860780;-63
2021/12/17 00:11:29;;;;;;;;;61.50;48.00;;;;;-146.39;100.00;62182.44;6270394;20;2859668;-63
2021/12/17 00:14:02;;;;;;;;;63.00;46.33;;;;;-146.39;100.00;62182.44;6271557;20;2869012;-65
2021/12/17 00:16:37;;;;;;;;;67.33;48.67;;;;;-146.39;100.00;62182.44;6301291;20;3635713;-65
2021/12/17 00:52:35;;;;;;;;;48.50;42.50;;;;;-146.39;100.00;62182.44;6300628;20;2851375;-67
2021/12/17 00:55:07;;;;;;;;;40.50;35.00;;;;;-146.39;100.00;62182.44;6268037;20;2855554;-63
2021/12/17 00:57:42;;;;;;;;;54.00;41.67;;;;;-146.39;100.00;62182.44;6266868;20;2862785;-62
2021/12/17 01:00:23;;;;;;;;;51.33;43.33;;;;;-146.39;100.00;62182.44;6300279;20;2876393;-62
2021/12/17 01:02:53;;;;;;;;;40.00;37.67;;;;;-146.39;100.00;62182.44;6300320;20;2860739;-62
2021/12/17 01:05:31;;;;;;;;;39.50;37.00;;;;;-146.39;100.00;62182.44;6299363;20;2860826;-63
2021/12/17 01:08:05;;;;;;;;;45.50;40.00;;;;;-146.39;100.00;62182.44;6268504;20;2861687;-63
2021/12/17 01:10:41;;;;;;;;;43.33;38.67;;;;;-146.39;100.00;62182.44;6267710;20;2864917;-63
2021/12/17 01:13:11;;;;;;;;;38.50;30.50;;;;;-146.39;100.00;62182.44;6298474;20;2851316;-64
2021/12/17 01:15:43;;;;;;;;;36.50;34.00;;;;;-146.39;100.00;62182.44;6267799;20;2855950;-64
2021/12/17 01:18:18;;;;;;;;;42.00;35.50;;;;;-146.39;100.00;62182.44;6268876;20;2853586;-66
2021/12/17 01:35:33;;;;;;;;;35.75;31.63;;;;;-146.39;100.00;62182.44;6144242;20;3590861;-63
2021/12/17 01:43:47;;;;;;;;;33.00;28.00;;;;;-146.39;100.00;62182.44;6299092;20;2849290;-64
2021/12/17 01:46:25;;;;;;;;;30.00;26.00;;;;;-146.39;100.00;62182.44;6270289;20;2850332;-63
2021/12/17 02:00:13;;;;;;;;;32.50;29.00;;;;;-146.39;100.00;62182.44;6268062;20;2500335;-63
2021/12/17 02:02:57;;;;;;;;;31.50;28.50;;;;;-146.39;100.00;62182.44;6269345;20;2852395;-64
2021/12/17 02:05:26;;;;;;;;;36.00;31.50;;;;;-146.39;100.00;62182.44;6269997;20;2853372;-66
2021/12/17 02:07:57;;;;;;;;;31.00;28.00;;;;;-146.39;100.00;62182.44;6269616;20;2851361;-64
2021/12/17 02:32:28;;;;;;;;;18.00;16.00;;;;;-146.39;100.00;62182.44;6298662;20;3555531;-63
2021/12/17 02:37:45;;;;;;;;;16.00;12.00;;;;;-146.39;100.00;62182.44;6298991;20;2796073;-65
2021/12/17 02:45:39;;;;;;;;;19.00;14.00;;;;;-146.39;100.00;62182.44;6268167;20;2813909;-65
2021/12/17 02:48:21;;;;;;;;;18.00;16.50;;;;;-146.39;100.00;62182.44;6301719;20;2831492;-63
2021/12/17 02:50:59;;;;;;;;;19.67;16.00;;;;;-146.39;100.00;62182.44;6272490;20;3563788;-63
2021/12/17 02:53:32;;;;;;;;;20.50;16.50;;;;;-146.39;100.00;62182.44;6302626;20;2814845;-67
2021/12/17 02:56:08;;;;;;;;;22.67;16.33;;;;;-146.39;100.00;62182.44;6268520;20;3566878;-61
2021/12/17 02:58:38;;;;;;;;;16.33;13.33;;;;;-146.39;100.00;62182.44;6301494;20;2810138;-62
2021/12/17 03:01:12;;;;;;;;;18.17;15.50;;;;;-146.39;100.00;62182.44;6324216;20;2819121;-63
2021/12/17 03:03:50;;;;;;;;;17.00;13.00;;;;;-146.39;100.00;62182.44;6301657;20;2798207;-64
2021/12/17 03:06:20;;;;;;;;;16.00;12.00;;;;;-146.39;100.00;62182.44;6267435;20;2798311;-67
2021/12/17 03:08:48;;;;;;;;;14.00;10.00;;;;;-146.39;100.00;62182.44;6266181;20;2784138;-63
2021/12/17 03:11:17;;;;;;;;;12.00;9.50;;;;;-146.39;100.00;62182.44;6270421;20;2759658;-64
2021/12/17 03:13:46;;;;;;;;;17.00;12.00;;;;;-146.39;100.00;62182.44;6299693;20;2796257;-63
2021/12/17 03:16:28;;;;;;;;;9.50;9.50;;;;;-146.39;100.00;62182.44;6265581;20;2769091;-66
2021/12/17 03:24:50;;;;;;;;;12.00;11.00;;;;;-146.39;100.00;62182.44;6265865;20;2777458;-62
2021/12/17 03:27:17;;;;;;;;;12.00;11.00;;;;;-146.39;100.00;62182.44;6264449;20;2777346;-61
2021/12/17 03:29:45;;;;;;;;;16.00;10.00;;;;;-146.39;100.00;62182.44;6267722;20;2677392;-62
2021/12/17 03:32:14;;;;;;;;;16.00;10.00;;;;;-146.39;100.00;62182.44;6297754;20;2792056;-64
2021/12/17 03:34:41;;;;;;;;;9.00;7.00;;;;;-146.39;100.00;62182.44;6300346;20;2739850;-62
2021/12/17 03:37:12;;;;;;;;;12.33;9.17;;;;;-146.39;100.00;62182.44;6338330;20;1812765;-63
2021/12/17 03:39:42;;;;;;;;;12.60;10.00;;;;;-146.39;100.00;62182.44;6293289;20;2763792;-66
2021/12/17 03:42:10;;;;;;;;;24.00;13.00;;;;;-146.39;100.00;62182.44;6265791;20;2829419;-61
2021/12/17 03:44:38;;;;;;;;;13.00;8.00;;;;;-146.39;100.00;62182.44;6267239;20;2754431;-62
2021/12/17 03:47:07;;;;;;;;;9.50;9.00;;;;;-146.39;100.00;62182.44;6315672;20;1811802;-66
2021/12/17 03:49:36;;;;;;;;;11.00;10.00;;;;;-146.39;100.00;62182.44;6297448;20;2772190;-64
2021/12/17 03:52:05;;;;;;;;;9.50;9.50;;;;;-146.39;100.00;62182.44;6268282;20;2758655;-64
2021/12/17 03:54:35;;;;;;;;;9.50;6.00;;;;;-146.39;100.00;62182.44;6299797;20;2758754;-63
2021/12/17 03:57:08;;;;;;;;;8.50;8.00;;;;;-146.39;100.00;62182.44;6268262;20;2748187;-64
2021/12/17 03:59:38;;;;;;;;;9.67;8.00;;;;;-146.39;100.00;62182.44;6339528;20;1817069;-62
2021/12/17 04:02:06;;;;;;;;;10.00;7.00;;;;;-146.39;100.00;62182.44;6270330;20;2764978;-61
2021/12/17 04:04:37;;;;;;;;;14.43;6.14;;;;;-146.39;100.00;62182.44;6309648;20;1804459;-63
2021/12/17 04:07:06;;;;;;;;;8.75;6.00;;;;;-146.39;100.00;62182.44;6317977;20;1821337;-62
2021/12/17 04:09:34;;;;;;;;;11.00;9.00;;;;;-146.39;100.00;62182.44;6296803;20;2763815;-62
2021/12/17 04:12:07;;;;;;;;;11.00;7.00;;;;;-146.39;100.00;62182.44;6265562;20;2755526;-63
2021/12/17 04:14:44;;;;;;;;;8.00;6.00;;;;;-146.39;100.00;62182.44;6284132;20;1804103;-61
2021/12/17 04:17:22;;;;;;;;;12.75;8.50;;;;;-146.39;100.00;62182.44;6314688;20;1811770;-63
2021/12/17 04:19:51;;;;;;;;;12.00;8.00;;;;;-146.39;100.00;62182.44;6315014;20;1802421;-62
2021/12/17 04:22:19;;;;;;;;;7.50;7.50;;;;;-146.39;100.00;62182.44;6324320;20;1808260;-62
2021/12/17 04:24:47;;;;;;;;;9.50;9.50;;;;;-146.39;100.00;62182.44;6303830;20;2763884;-65
2021/12/17 04:27:15;;;;;;;;;29.50;24.50;;;;;-146.39;100.00;62182.44;6299992;20;2498370;-66
2021/12/17 04:29:43;;;;;;;;;8.25;6.00;;;;;-146.39;100.00;62182.44;6292248;20;1820242;-60
2021/12/17 04:32:16;;;;;;;;;9.50;7.25;;;;;-146.39;100.00;62182.44;6322344;20;1818064;-62
2021/12/17 04:34:44;;;;;;;;;14.00;8.50;;;;;-146.39;100.00;62182.44;6301673;20;2749303;-64
2021/12/17 04:37:12;;;;;;;;;8.00;8.00;;;;;-146.39;100.00;62182.44;6299862;20;2734628;-63
2021/12/17 04:39:45;;;;;;;;;20.50;13.00;;;;;-146.39;100.00;62182.44;6301373;20;2821072;-64
2021/12/17 04:42:34;;;;;;;;;18.67;14.00;;;;;-146.39;100.00;62182.44;6271087;20;3530483;-62
2021/12/17 04:45:06;;;;;;;;;19.67;16.00;;;;;-146.39;100.00;62182.44;6300912;20;3569118;-64
2021/12/17 04:59:02;;;;;;;;;25.50;23.00;;;;;-146.39;100.00;62182.44;6302218;20;2827394;-64
2021/12/17 05:01:33;;;;;;;;;22.33;21.33;;;;;-146.39;100.00;62182.44;6266988;20;3565887;-64
2021/12/17 05:04:03;;;;;;;;;22.00;15.50;;;;;-146.39;100.00;62182.44;6300835;20;2827385;-63
2021/12/17 05:06:32;;;;;;;;;19.67;18.00;;;;;-146.39;100.00;62182.44;6269095;20;3565293;-61
2021/12/17 05:09:04;;;;;;;;;22.50;17.50;;;;;-146.39;100.00;62182.44;6303133;20;2833660;-64
2021/12/17 05:19:54;;;;;;;;;23.00;18.50;;;;;-146.39;100.00;62182.44;6300558;20;2836694;-64
2021/12/17 05:22:24;;;;;;;;;22.50;20.00;;;;;-146.39;100.00;62182.44;6269830;20;2500499;-61
2021/12/17 05:24:53;;;;;;;;;49.00;40.50;;;;;-146.39;100.00;62182.44;6270425;20;2875266;-65
2021/12/17 05:27:23;;;;;;;;;97.67;68.33;;;;;-146.39;100.00;62182.44;6268750;20;3642921;-61
2021/12/17 05:29:55;;;;;;;;;44.33;33.00;;;;;-146.39;100.00;62182.44;6299939;20;2862865;-63
2021/12/17 05:32:27;;;;;;;;;30.67;22.00;;;;;-146.39;100.00;62182.44;6298613;20;3579558;-60
2021/12/17 05:34:56;;;;;;;;;24.33;20.00;;;;;-146.39;100.00;62182.44;6265924;20;3563823;-63
2021/12/17 05:37:25;;;;;;;;;26.00;18.67;;;;;-146.39;100.00;62182.44;6301074;20;3572113;-65
2021/12/17 05:39:53;;;;;;;;;20.00;18.00;;;;;-146.39;100.00;62182.44;6299985;20;2826275;-63
2021/12/17 05:42:22;;;;;;;;;32.50;24.00;;;;;-146.39;100.00;62182.44;6267876;20;2842955;-63
2021/12/17 05:45:05;;;;;;;;;40.33;25.00;;;;;-146.39;100.00;62182.44;6267665;20;2854459;-63
2021/12/17 05:47:33;;;;;;;;;25.00;20.50;;;;;-146.39;100.00;62182.44;6299529;20;2482104;-60
2021/12/17 05:50:03;;;;;;;;;17.67;15.00;;;;;-146.39;100.00;62182.44;6267842;20;3536771;-61
2021/12/17 05:52:32;;;;;;;;;20.60;15.00;;;;;-146.39;100.00;62182.44;6321084;20;2798193;-61
2021/12/17 05:55:06;;;;;;;;;18.60;14.20;;;;;-146.39;100.00;62182.44;6296379;20;2805616;-62
2021/12/17 05:57:37;;;;;;;;;17.00;15.67;;;;;-146.39;100.00;62182.44;6267355;20;2808680;-62
2021/12/17 06:00:07;;;;;;;;;17.00;15.50;;;;;-146.39;100.00;62182.44;6301759;20;2806720;-64
2021/12/17 06:02:35;;;;;;;;;14.00;14.00;;;;;-146.39;100.00;62182.44;6268362;20;2812851;-63
2021/12/17 06:05:04;;;;;;;;;25.33;18.67;;;;;-146.39;100.00;62182.44;6270235;20;3563820;-63
2021/12/17 06:07:36;;;;;;;;;18.33;14.33;;;;;-146.39;100.00;62182.44;6299241;20;3522229;-62
2021/12/17 06:10:06;;;;;;;;;23.00;16.33;;;;;-146.39;100.00;62182.44;6298774;20;3557545;-64
2021/12/17 06:12:39;;;;;;;;;21.33;15.67;;;;;-146.39;100.00;62182.44;6298000;20;3566950;-65
2021/12/17 06:15:12;;;;;;;;;19.33;15.33;;;;;-146.39;100.00;62182.44;6297713;20;3554552;-63
2021/12/17 06:17:50;;;;;;;;;23.33;18.33;;;;;-146.39;100.00;62182.44;6297633;20;3563851;-63
2021/12/17 06:20:24;;;;;;;;;26.80;20.80;;;;;-146.39;100.00;62182.44;6296946;20;2825255;-62
2021/12/17 06:22:52;;;;;;;;;19.00;15.00;;;;;-146.39;100.00;62182.44;6268030;20;2802446;-61
2021/12/17 06:25:21;;;;;;;;;29.00;19.00;;;;;-146.39;100.00;62182.44;6268230;20;2861143;-62
2021/12/17 06:27:57;;;;;;;;;18.00;13.67;;;;;-146.39;100.00;62182.44;6268935;20;3552312;-63
2021/12/17 06:30:27;;;;;;;;;22.33;15.00;;;;;-146.39;100.00;62182.44;6299760;20;3550285;-65
2021/12/17 06:32:56;;;;;;;;;16.33;14.33;;;;;-146.39;100.00;62182.44;6299341;20;3548235;-61
2021/12/17 06:35:24;;;;;;;;;30.50;22.00;;;;;-146.39;100.00;62182.44;6299740;20;2496115;-63
2021/12/17 06:37:51;;;;;;;;;26.50;21.00;;;;;-146.39;100.00;62182.44;6267518;20;2823204;-62
2021/12/17 06:40:20;;;;;;;;;25.33;22.67;;;;;-146.39;100.00;62182.44;6265884;20;3563884;-61
2021/12/17 06:42:48;;;;;;;;;26.00;18.50;;;;;-146.39;100.00;62182.44;6295015;20;2500336;-66
2021/12/17 06:45:24;;;;;;;;;23.33;22.67;;;;;-146.39;100.00;62182.44;6267209;20;3559670;-63
2021/12/17 06:47:58;;;;;;;;;22.50;16.50;;;;;-146.39;100.00;62182.44;6300029;20;2834644;-63
2021/12/17 07:35:13;;;;;;;;;29.00;23.00;;;;;-146.39;100.00;62182.44;6263122;20;2500280;-62
2021/12/17 07:40:11;;;;;;;;;29.50;25.00;;;;;-146.39;100.00;62182.44;6261898;20;2500248;-63
2021/12/17 07:42:42;;;;;;;;;32.00;25.00;;;;;-146.39;100.00;62182.44;6266673;20;2854442;-62
2021/12/17 07:45:10;;;;;;;;;25.00;19.50;;;;;-146.39;100.00;62182.44;6263808;20;2500294;-60
2021/12/17 07:47:38;;;;;;;;;27.50;24.50;;;;;-146.39;100.00;62182.44;6270972;20;2837846;-63
2021/12/17 07:50:07;;;;;;;;;41.00;37.00;;;;;-146.39;100.00;62182.44;6266602;20;2856619;-61
2021/12/17 07:52:44;;;;;;;;;38.50;35.00;;;;;-146.39;100.00;62182.44;6267698;20;2855517;-61
2021/12/17 07:55:13;;;;;;;;;38.00;30.00;;;;;-146.39;100.00;62182.44;6266040;20;2867986;-64
2021/12/17 07:57:41;;;;;;;;;36.00;27.50;;;;;-146.39;100.00;62182.44;6270231;20;2858643;-64
2021/12/17 08:00:10;;;;;;;;;32.50;22.50;;;;;-146.39;100.00;62182.44;6268122;20;2491913;-64
2021/12/17 08:02:44;;;;;;;;;24.00;18.67;;;;;-146.39;100.00;62182.44;6272907;20;3554414;-65
2021/12/17 08:05:14;;;;;;;;;21.33;15.00;;;;;-146.39;100.00;62182.44;6270867;20;3545029;-64
2021/12/17 08:07:43;;;;;;;;;14.33;12.00;;;;;-146.39;100.00;62182.44;6300711;20;2814935;-65
2021/12/17 08:10:12;;;;;;;;;17.33;14.33;;;;;-146.39;100.00;62182.44;6300014;20;3542971;-61
2021/12/17 08:12:40;;;;;;;;;21.50;13.50;;;;;-146.39;100.00;62182.44;6306056;20;2815291;-64
2021/12/17 08:15:11;;;;;;;;;17.33;15.67;;;;;-146.39;100.00;62182.44;6270491;20;3552359;-61
2021/12/17 08:26:21;;;;;;;;;19.67;18.67;;;;;-146.39;100.00;62182.44;6300999;20;3556630;-63
2021/12/17 08:31:25;;;;;;;;;23.50;23.50;;;;;-146.39;100.00;62182.44;6268753;20;2498191;-67
2021/12/17 08:33:56;;;;;;;;;21.00;14.67;;;;;-146.39;100.00;62182.44;6271111;20;3539827;-62
2021/12/17 08:36:24;;;;;;;;;24.00;19.00;;;;;-146.39;100.00;62182.44;6300484;20;2822146;-63
2021/12/17 08:38:52;;;;;;;;;22.50;17.50;;;;;-146.39;100.00;62182.44;6271355;20;2813799;-63
2021/12/17 08:41:21;;;;;;;;;24.00;18.00;;;;;-146.39;100.00;62182.44;6270316;20;2820050;-63
2021/12/17 08:43:52;;;;;;;;;23.67;18.17;;;;;-146.39;100.00;62182.44;6296469;20;2827421;-64
2021/12/17 08:46:20;;;;;;;;;20.50;20.50;;;;;-146.39;100.00;62182.44;6302924;20;2814886;-64
2021/12/17 08:48:48;;;;;;;;;27.00;22.00;;;;;-146.39;100.00;62182.44;6272895;20;2836712;-65
2021/12/17 08:51:17;;;;;;;;;27.67;24.00;;;;;-146.39;100.00;62182.44;6270326;20;3570035;-61
2021/12/17 08:53:47;;;;;;;;;25.00;20.00;;;;;-146.39;100.00;62182.44;6302448;20;3566929;-61
2021/12/17 08:56:18;;;;;;;;;16.00;12.00;;;;;-146.39;100.00;62182.44;6270302;20;2789875;-60
2021/12/17 08:58:51;;;;;;;;;22.67;18.00;;;;;-146.39;100.00;62182.44;6270153;20;3552342;-59
2021/12/17 09:01:21;;;;;;;;;12.00;12.00;;;;;-146.39;100.00;62182.44;6301787;20;2805521;-61
2021/12/17 09:03:49;;;;;;;;;8.50;7.00;;;;;-146.39;100.00;62182.44;6274475;20;2751306;-61
2021/12/17 09:06:22;;;;;;;;;11.00;9.50;;;;;-146.39;100.00;62182.44;6270086;20;2777344;-62
2021/12/17 09:08:54;;;;;;;;;7.00;7.00;;;;;-146.39;100.00;62182.44;6276593;20;2736719;-66
2021/12/17 09:11:28;;;;;;;;;10.20;9.80;;;;;-146.39;100.00;62182.44;6329672;20;2787776;-65
2021/12/17 09:14:00;;;;;;;;;10.00;7.00;;;;;-146.39;100.00;62182.44;6271271;20;2749235;-65
2021/12/17 09:16:28;;;;;;;;;17.00;9.00;;;;;-146.39;100.00;62182.44;6269172;20;2787842;-63
2021/12/17 09:18:57;;;;;;;;;10.50;9.00;;;;;-146.39;100.00;62182.44;6270323;20;2761785;-64
2021/12/17 09:21:26;;;;;;;;;10.00;8.00;;;;;-146.39;100.00;62182.44;6273136;20;2763974;-67
2021/12/17 09:23:54;;;;;;;;;13.00;11.50;;;;;-146.39;100.00;62182.44;6268610;20;2786711;-62
2021/12/17 09:26:23;;;;;;;;;21.00;19.67;;;;;-146.39;100.00;62182.44;6267174;20;3562813;-61
2021/12/17 09:28:51;;;;;;;;;26.00;23.50;;;;;-146.39;100.00;62182.44;6272265;20;2844026;-62
2021/12/17 09:31:21;;;;;;;;;19.00;13.33;;;;;-146.39;100.00;62182.44;6269325;20;3530481;-60
2021/12/17 09:33:51;;;;;;;;;12.00;10.00;;;;;-146.39;100.00;62182.44;6269666;20;2773148;-58
2021/12/17 09:36:21;;;;;;;;;29.50;21.50;;;;;-146.39;100.00;62182.44;6267958;20;2500268;-59
2021/12/17 09:38:52;;;;;;;;;8.00;7.00;;;;;-146.39;100.00;62182.44;6271473;20;2744023;-62
2021/12/17 09:41:26;;;;;;;;;14.00;12.60;;;;;-146.39;100.00;62182.44;6297383;20;2789863;-59
2021/12/17 09:43:54;;;;;;;;;11.00;10.00;;;;;-146.39;100.00;62182.44;6273154;20;2720525;-60
2021/12/17 09:46:25;;;;;;;;;16.50;13.00;;;;;-146.39;100.00;62182.44;6268522;20;2795227;-61
2021/12/17 09:48:57;;;;;;;;;9.00;9.00;;;;;-146.39;100.00;62182.44;6267636;20;2732542;-61
2021/12/17 09:51:28;;;;;;;;;8.00;8.00;;;;;-146.39;100.00;62182.44;6275368;20;2730633;-62
2021/12/17 09:53:56;;;;;;;;;17.00;13.00;;;;;-146.39;100.00;62182.44;6300940;20;2797165;-62
2021/12/17 09:56:27;;;;;;;;;9.00;9.00;;;;;-146.39;100.00;62182.44;6272477;20;2751408;-60
2021/12/17 09:58:57;;;;;;;;;13.00;13.00;;;;;-146.39;100.00;62182.44;6268638;20;2785694;-62
2021/12/17 10:01:28;;;;;;;;;24.50;18.00;;;;;-146.39;100.00;62182.44;6301119;20;2838787;-62
2021/12/17 10:04:31;;;;;;;;;11.50;11.50;;;;;-146.39;100.00;62182.44;6269712;20;2788876;-63
2021/12/17 10:07:32;;;;;;;;;27.50;18.50;;;;;-146.39;100.00;62182.44;6267461;20;2500271;-58
2021/12/17 10:10:05;;;;;;;;;17.50;12.00;;;;;-146.39;100.00;62182.44;6269063;20;2806501;-62
2021/12/17 10:12:37;;;;;;;;;20.00;18.50;;;;;-146.39;100.00;62182.44;6272120;20;2827389;-60
2021/12/17 10:15:15;;;;;;;;;13.00;9.00;;;;;-146.39;100.00;62182.44;6268118;20;2764894;-62
2021/12/17 10:18:01;;;;;;;;;13.00;13.00;;;;;-146.39;100.00;62182.44;6268656;20;2789963;-61
2021/12/17 10:21:01;;;;;;;;;6.75;5.00;;;;;-146.39;100.00;62182.44;6319020;20;1809792;-61
2021/12/17 10:23:34;;;;;;;;;15.00;14.00;;;;;-146.39;100.00;62182.44;6297332;20;2797187;-60
2021/12/17 10:26:03;;;;;;;;;13.50;12.50;;;;;-146.39;100.00;62182.44;6268556;20;2791951;-63
2021/12/17 10:28:31;;;;;;;;;10.50;9.00;;;;;-146.39;100.00;62182.44;6276622;20;2753498;-61
2021/12/17 10:30:59;;;;;;;;;17.50;13.50;;;;;-146.39;100.00;62182.44;6301021;20;2807572;-63
2021/12/17 10:33:29;;;;;;;;;13.00;8.00;;;;;-146.39;100.00;62182.44;6270318;20;2769045;-62
2021/12/17 10:36:03;;;;;;;;;17.50;13.50;;;;;-146.39;100.00;62182.44;6269031;20;2802417;-64
2021/12/17 10:38:31;;;;;;;;;14.00;9.00;;;;;-146.39;100.00;62182.44;6268461;20;2765892;-63
2021/12/17 10:41:07;;;;;;;;;19.33;15.00;;;;;-146.39;100.00;62182.44;6270530;20;3563622;-60
2021/12/17 10:43:41;;;;;;;;;29.50;25.00;;;;;-146.39;100.00;62182.44;6300416;20;2854468;-60
2021/12/17 10:46:31;;;;;;;;;0.00;0.00;;;;;-146.39;100.00;62182.44;6306758;20;2694043;-65
2021/12/17 10:49:22;;;;;;;;;17.33;15.67;;;;;-146.39;100.00;62182.44;6267276;20;3554393;-64
2021/12/17 10:51:56;;;;;;;;;29.00;24.00;;;;;-146.39;100.00;62182.44;6266583;20;2500275;-65
2021/12/17 10:54:28;;;;;;;;;19.50;18.00;;;;;-146.39;100.00;62182.44;6267720;20;2836736;-60
2021/12/17 10:56:57;;;;;;;;;23.33;17.67;;;;;-146.39;100.00;62182.44;6269529;20;3565908;-63
2021/12/17 10:59:31;;;;;;;;;23.67;14.33;;;;;-146.39;100.00;62182.44;6268922;20;3553340;-63
2021/12/17 11:02:10;;;;;;;;;23.00;19.00;;;;;-146.39;100.00;62182.44;6294669;20;2477363;-61
2021/12/17 11:04:46;;;;;;;;;30.50;24.50;;;;;-146.39;100.00;62182.44;6266419;20;2494099;-64
2021/12/17 11:07:19;;;;;;;;;23.50;19.00;;;;;-146.39;100.00;62182.44;6264015;20;2830452;-62
2021/12/17 11:09:53;;;;;;;;;19.50;17.00;;;;;-146.39;100.00;62182.44;6273364;20;2825263;-62
2021/12/17 11:12:39;;;;;;;;;24.33;19.67;;;;;-146.39;100.00;62182.44;6268189;20;3565956;-63
2021/12/17 11:15:21;;;;;;;;;7.00;7.00;;;;;-146.39;100.00;62182.44;6287441;20;1805581;-60
2021/12/17 11:18:02;;;;;;;;;6.50;6.00;;;;;-146.39;100.00;62182.44;6304429;20;2744003;-63
2021/12/17 11:20:38;;;;;;;;;10.00;8.00;;;;;-146.39;100.00;62182.44;6268897;20;2756575;-60
2021/12/17 11:23:14;;;;;;;;;14.00;11.40;;;;;-146.39;100.00;62182.44;6291860;20;2794069;-61
2021/12/17 11:25:53;;;;;;;;;9.00;7.00;;;;;-146.39;100.00;62182.44;6273034;20;2739826;-64
2021/12/17 11:28:24;;;;;;;;;7.80;6.40;;;;;-146.39;100.00;62182.44;6293084;20;2731959;-64
2021/12/17 11:30:59;;;;;;;;;11.40;10.80;;;;;-146.39;100.00;62182.44;6330469;20;2775276;-61
2021/12/17 11:33:32;;;;;;;;;12.50;12.00;;;;;-146.39;100.00;62182.44;6272945;20;2781638;-65
2021/12/17 11:35:59;;;;;;;;;8.50;7.00;;;;;-146.39;100.00;62182.44;6273081;20;2745031;-61
2021/12/17 11:39:10;;;;;;;;;8.83;6.50;;;;;-146.39;100.00;62182.44;6316553;20;1799986;-64
2021/12/17 11:41:57;;;;;;;;;5.33;4.00;;;;;-146.39;100.00;62182.44;6296634;20;1818740;-64
2021/12/17 11:44:40;;;;;;;;;14.20;10.40;;;;;-146.39;100.00;62182.44;6331376;20;2781627;-60
2021/12/17 11:47:12;;;;;;;;;9.20;9.20;;;;;-146.39;100.00;62182.44;6298217;20;2767051;-61
2021/12/17 11:49:52;;;;;;;;;19.67;12.33;;;;;-146.39;100.00;62182.44;6270737;20;3536688;-63
2021/12/17 11:52:48;;;;;;;;;10.00;10.00;;;;;-146.39;100.00;62182.44;6304896;20;2753399;-61
2021/12/17 11:55:37;;;;;;;;;17.00;14.33;;;;;-146.39;100.00;62182.44;6271866;20;3532307;-61
2021/12/17 11:58:13;;;;;;;;;27.00;21.00;;;;;-146.39;100.00;62182.44;6304881;20;2845111;-60
2021/12/17 12:00:41;;;;;;;;;24.67;21.00;;;;;-146.39;100.00;62182.44;6271345;20;3565863;-61
2021/12/17 12:03:24;;;;;;;;;20.00;14.00;;;;;-146.39;100.00;62182.44;6304532;20;3547101;-63
2021/12/17 12:05:58;;;;;;;;;19.00;14.33;;;;;-146.39;100.00;62182.44;6302091;20;2799416;-63
2021/12/17 12:08:50;;;;;;;;;9.00;8.00;;;;;-146.39;100.00;62182.44;6300287;20;2748162;-62
2021/12/17 12:11:26;;;;;;;;;15.00;14.50;;;;;-146.39;100.00;62182.44;6273510;20;2812810;-59
2021/12/17 12:13:58;;;;;;;;;14.00;13.50;;;;;-146.39;100.00;62182.44;6274862;20;2784627;-63
2021/12/17 12:16:30;;;;;;;;;18.00;16.00;;;;;-146.39;100.00;62182.44;6273961;20;2809660;-62
2021/12/17 12:19:10;;;;;;;;;17.00;12.00;;;;;-146.39;100.00;62182.44;6272010;20;2795115;-63
2021/12/17 12:22:04;;;;;;;;;13.00;13.00;;;;;-146.39;100.00;62182.44;6269515;20;2792430;-63
2021/12/17 12:24:36;;;;;;;;;17.40;12.00;;;;;-146.39;100.00;62182.44;6295891;20;2795176;-67
2021/12/17 12:27:05;;;;;;;;;15.50;10.00;;;;;-146.39;100.00;62182.44;6269871;20;2787785;-63
2021/12/17 12:29:38;;;;;;;;;8.00;6.29;;;;;-146.39;100.00;62182.44;6312685;20;1798186;-65
2021/12/17 12:32:20;;;;;;;;;10.00;8.00;;;;;-146.39;100.00;62182.44;6305025;20;2754601;-65
2021/12/17 12:34:48;;;;;;;;;18.00;18.00;;;;;-146.39;100.00;62182.44;6273139;20;2830774;-62
2021/12/17 12:37:24;;;;;;;;;15.80;9.40;;;;;-146.39;100.00;62182.44;6295043;20;2765923;-63
2021/12/17 12:39:57;;;;;;;;;16.00;8.00;;;;;-146.39;100.00;62182.44;6271017;20;2790895;-63
2021/12/17 12:42:33;;;;;;;;;15.40;13.00;;;;;-146.39;100.00;62182.44;6296392;20;2788825;-62
2021/12/17 12:45:02;;;;;;;;;8.00;4.00;;;;;-146.39;100.00;62182.44;6275488;20;2748183;-60
2021/12/17 12:47:54;;;;;;;;;10.00;9.40;;;;;-146.39;100.00;62182.44;6296336;20;2772180;-60
2021/12/17 12:50:27;;;;;;;;;10.50;10.00;;;;;-146.39;100.00;62182.44;6272903;20;2776290;-63
2021/12/17 12:53:09;;;;;;;;;4.50;4.50;;;;;-146.39;100.00;62182.44;6275009;20;2745046;-61
2021/12/17 12:55:48;;;;;;;;;15.00;10.00;;;;;-146.39;100.00;62182.44;6300806;20;2778827;-60
2021/12/17 12:58:29;;;;;;;;;14.00;10.00;;;;;-146.39;100.00;62182.44;6272409;20;2773266;-62
2021/12/17 13:01:01;;;;;;;;;4.00;4.00;;;;;-146.39;100.00;62182.44;6273620;20;3454437;-63
2021/12/17 13:03:37;;;;;;;;;10.71;9.00;;;;;-146.39;100.00;62182.44;6311455;20;1804524;-63
2021/12/17 13:06:06;;;;;;;;;11.50;7.00;;;;;-146.39;100.00;62182.44;6303240;20;2761706;-60
2021/12/17 13:08:35;;;;;;;;;13.50;9.00;;;;;-146.39;100.00;62182.44;6268914;20;2769076;-63
2021/12/17 13:11:07;;;;;;;;;11.40;10.40;;;;;-146.39;100.00;62182.44;6299412;20;2791950;-64
2021/12/17 13:13:50;;;;;;;;;17.00;12.00;;;;;-146.39;100.00;62182.44;6270038;20;2792973;-64
2021/12/17 13:22:53;;;;;;;;;11.20;8.60;;;;;-146.39;100.00;62182.44;6326443;20;2774315;-62
2021/12/17 13:24:37;;;;;;;;;18.00;13.00;;;;;-146.39;100.00;62182.44;6266100;20;2797163;-63
2021/12/17 13:27:11;;;;;;;;;11.00;9.50;;;;;-146.39;100.00;62182.44;6273568;20;2766945;-63
2021/12/17 13:29:44;;;;;;;;;12.40;11.60;;;;;-146.39;100.00;62182.44;6296493;20;2787770;-63
2021/12/17 13:32:17;;;;;;;;;13.50;11.00;;;;;-146.39;100.00;62182.44;6271352;20;2775250;-65
2021/12/17 13:34:53;;;;;;;;;20.67;14.67;;;;;-146.39;100.00;62182.44;6269661;20;3543232;-64
2021/12/17 13:37:32;;;;;;;;;17.33;12.00;;;;;-146.39;100.00;62182.44;6300969;20;2803418;-62
2021/12/17 13:40:09;;;;;;;;;12.50;10.00;;;;;-146.39;100.00;62182.44;6306081;20;2777377;-61
2021/12/17 13:42:43;;;;;;;;;18.33;14.33;;;;;-146.39;100.00;62182.44;6274549;20;2806642;-60
2021/12/17 13:45:23;;;;;;;;;7.00;7.00;;;;;-146.39;100.00;62182.44;6309091;20;2741906;-60
2021/12/17 13:47:57;;;;;;;;;10.50;8.00;;;;;-146.39;100.00;62182.44;6272912;20;2759658;-60
2021/12/17 13:50:44;;;;;;;;;9.75;7.25;;;;;-146.39;100.00;62182.44;6291554;20;1809727;-64
2021/12/17 13:53:15;;;;;;;;;12.00;10.00;;;;;-146.39;100.00;62182.44;6308251;20;2775237;-63
2021/12/17 13:56:05;;;;;;;;;10.80;9.00;;;;;-146.39;100.00;62182.44;6300633;20;2762750;-63
2021/12/17 13:58:35;;;;;;;;;14.40;11.40;;;;;-146.39;100.00;62182.44;6328864;20;2787774;-64
2021/12/17 14:01:03;;;;;;;;;19.00;12.00;;;;;-146.39;100.00;62182.44;6277668;20;2797230;-67
2021/12/17 14:03:35;;;;;;;;;20.80;19.60;;;;;-146.39;100.00;62182.44;6293798;20;2832708;-67
2021/12/17 14:06:21;;;;;;;;;16.00;13.67;;;;;-146.39;100.00;62182.44;6303062;20;3545023;-61
2021/12/17 14:08:51;;;;;;;;;14.60;11.00;;;;;-146.39;100.00;62182.44;6326811;20;2793014;-61
2021/12/17 14:11:30;;;;;;;;;15.00;12.33;;;;;-146.39;100.00;62182.44;6275037;20;2803531;-62
2021/12/17 14:14:27;;;;;;;;;8.50;8.50;;;;;-146.39;100.00;62182.44;6302008;20;2737796;-64
2021/12/17 14:17:08;;;;;;;;;11.00;11.00;;;;;-146.39;100.00;62182.44;6300758;20;2794007;-61